Time,TemperatureF,DewpointF,PressureIn,WindDirection,WindDirectionDegrees,WindSpeedMPH,WindSpeedGustMPH,Humidity,HourlyPrecipIn,Conditions,Clouds,dailyrainin,SoftwareType,DateUTC
2013-04-26 08:20:00,81.8,71.1,29.95,NE,40,7.0,7.0,70,0.00,,,0.00,Wunderground v.1.15,2013-04-26 12:20:00,
2013-04-26 08:30:00,82.2,70.6,29.96,East,96,7.0,7.0,68,0.00,,,0.00,Wunderground v.1.15,2013-04-26 12:30:00,
2013-04-26 08:40:00,82.6,71.4,29.96,ENE,78,8.0,8.0,69,0.00,,,0.00,Wunderground v.1.15,2013-04-26 12:40:00,
2013-04-26 08:50:00,82.6,71.4,29.96,East,80,6.0,6.0,69,0.00,,,0.00,Wunderground v.1.15,2013-04-26 12:50:00,
2013-04-26 09:00:00,83.0,70.9,29.96,ESE,119,8.0,11.0,67,0.00,,,0.00,Wunderground v.1.15,2013-04-26 13:00:00,
2013-04-26 09:10:00,83.0,70.9,29.96,SSE,166,8.0,8.0,67,0.00,,,0.00,Wunderground v.1.15,2013-04-26 13:10:00,
2013-04-26 09:20:00,83.4,71.3,29.96,ESE,113,8.0,8.0,67,0.00,,,0.00,Wunderground v.1.15,2013-04-26 13:20:00,
2013-04-26 09:30:00,83.2,71.1,29.97,ENE,67,9.0,14.0,67,0.00,,,0.00,Wunderground v.1.15,2013-04-26 13:30:00,
2013-04-26 09:40:00,83.8,71.7,29.97,SSE,151,9.0,10.0,67,0.00,,,0.00,Wunderground v.1.15,2013-04-26 13:40:00,
2013-04-26 09:50:00,84.5,71.4,29.97,NE,38,8.0,8.0,65,0.00,,,0.00,Wunderground v.1.15,2013-04-26 13:50:00,
2013-04-26 10:00:00,84.1,70.6,29.97,East,94,10.0,10.0,64,0.00,,,0.00,Wunderground v.1.15,2013-04-26 14:00:00,
2013-04-26 10:10:00,84.1,70.6,29.98,ESE,102,9.0,11.0,64,0.00,,,0.00,Wunderground v.1.15,2013-04-26 14:10:00,
2013-04-26 10:20:00,84.0,71.9,29.98,ESE,105,10.0,15.0,67,0.00,,,0.00,Wunderground v.1.15,2013-04-26 14:20:00,
2013-04-26 10:30:00,84.1,71.1,29.98,ESE,114,10.0,10.0,65,0.00,,,0.00,Wunderground v.1.15,2013-04-26 14:30:00,
2013-04-26 10:40:00,84.5,71.4,29.98,ENE,69,10.0,14.0,65,0.00,,,0.00,Wunderground v.1.15,2013-04-26 14:40:00,
2013-04-26 10:50:00,84.1,71.5,29.98,East,96,12.0,12.0,66,0.00,,,0.00,Wunderground v.1.15,2013-04-26 14:50:00,
2013-04-26 11:00:00,84.5,71.9,29.97,ENE,68,11.0,11.0,66,0.00,,,0.00,Wunderground v.1.15,2013-04-26 15:00:00,
2013-04-26 11:10:00,84.5,71.4,29.97,East,84,11.0,11.0,65,0.00,,,0.00,Wunderground v.1.15,2013-04-26 15:10:00,
2013-04-26 11:20:00,84.5,71.9,29.97,East,85,11.0,17.0,66,0.00,,,0.00,Wunderground v.1.15,2013-04-26 15:20:00,
2013-04-26 11:30:00,84.7,71.6,29.97,East,94,11.0,11.0,65,0.00,,,0.00,Wunderground v.1.15,2013-04-26 15:30:00,
2013-04-26 11:40:00,84.9,71.4,29.97,East,80,11.0,18.0,64,0.00,,,0.00,Wunderground v.1.15,2013-04-26 15:40:00,
2013-04-26 11:50:00,84.5,71.4,29.97,ENE,78,12.0,12.0,65,0.00,,,0.00,Wunderground v.1.15,2013-04-26 15:50:00,
2013-04-26 12:00:00,85.1,71.5,29.97,ESE,111,12.0,14.0,64,0.00,,,0.00,Wunderground v.1.15,2013-04-26 16:00:00,
2013-04-26 12:10:00,85.1,71.1,29.96,East,92,12.0,12.0,63,0.00,,,0.00,Wunderground v.1.15,2013-04-26 16:10:00,
2013-04-26 12:20:00,85.3,70.8,29.96,ENE,76,11.0,12.0,62,0.00,,,0.00,Wunderground v.1.15,2013-04-26 16:20:00,
2013-04-26 12:30:00,85.1,70.6,29.96,East,96,10.0,13.0,62,0.00,,,0.00,Wunderground v.1.15,2013-04-26 16:30:00,
2013-04-26 12:40:00,84.9,70.9,29.96,ESE,120,10.0,10.0,63,0.00,,,0.00,Wunderground v.1.15,2013-04-26 16:40:00,
2013-04-26 12:50:00,85.5,71.9,29.96,ENE,77,10.0,13.0,64,0.00,,,0.00,Wunderground v.1.15,2013-04-26 16:50:00,
2013-04-26 13:00:00,84.9,71.8,29.96,East,86,11.0,11.0,65,0.00,,,0.00,Wunderground v.1.15,2013-04-26 17:00:00,
2013-04-26 13:10:00,85.3,72.2,29.95,ENE,71,12.0,12.0,65,0.00,,,0.00,Wunderground v.1.15,2013-04-26 17:10:00,
2013-04-26 13:20:00,84.7,71.6,29.95,East,96,12.0,14.0,65,0.00,,,0.00,Wunderground v.1.15,2013-04-26 17:20:00,
2013-04-26 13:30:00,84.9,71.4,29.95,ENE,74,12.0,15.0,64,0.00,,,0.00,Wunderground v.1.15,2013-04-26 17:30:00,
2013-04-26 13:40:00,85.3,71.7,29.95,ESE,109,11.0,14.0,64,0.00,,,0.00,Wunderground v.1.15,2013-04-26 17:40:00,
2013-04-26 13:50:00,84.9,71.4,29.95,ESE,102,11.0,11.0,64,0.00,,,0.00,Wunderground v.1.15,2013-04-26 17:50:00,
2013-04-26 14:00:00,84.1,71.5,29.94,East,82,12.0,13.0,66,0.00,,,0.00,Wunderground v.1.15,2013-04-26 18:00:00,
2013-04-26 14:10:00,84.0,71.0,29.93,ESE,108,12.0,15.0,65,0.00,,,0.00,Wunderground v.1.15,2013-04-26 18:10:00,
2013-04-26 14:20:00,84.1,71.1,29.93,NNE,18,12.0,12.0,65,0.00,,,0.00,Wunderground v.1.15,2013-04-26 18:20:00,
2013-04-26 14:30:00,84.7,71.6,29.93,East,92,10.0,21.0,65,0.00,,,0.00,Wunderground v.1.15,2013-04-26 18:30:00,
2013-04-26 14:40:00,84.3,70.8,29.93,ESE,111,11.0,11.0,64,0.00,,,0.00,Wunderground v.1.15,2013-04-26 18:40:00,
2013-04-26 14:50:00,84.3,71.2,29.93,ESE,115,11.0,11.0,65,0.00,,,0.00,Wunderground v.1.15,2013-04-26 18:50:00,
2013-04-26 15:00:00,84.1,71.1,29.93,ESE,121,11.0,14.0,65,0.00,,,0.00,Wunderground v.1.15,2013-04-26 19:00:00,
2013-04-26 15:10:00,84.3,70.8,29.93,East,88,10.0,10.0,64,0.00,,,0.00,Wunderground v.1.15,2013-04-26 19:10:00,
2013-04-26 15:20:00,83.6,71.0,29.93,East,85,11.0,11.0,66,0.00,,,0.00,Wunderground v.1.15,2013-04-26 19:20:00,
2013-04-26 15:30:00,83.6,70.6,29.92,East,98,11.0,11.0,65,0.00,,,0.00,Wunderground v.1.15,2013-04-26 19:30:00,
2013-04-26 15:40:00,83.8,71.7,29.92,ENE,72,11.0,11.0,67,0.00,,,0.00,Wunderground v.1.15,2013-04-26 19:40:00,
2013-04-26 15:50:00,83.8,71.7,29.92,ESE,113,10.0,10.0,67,0.00,,,0.00,Wunderground v.1.15,2013-04-26 19:50:00,
2013-04-26 16:00:00,82.6,71.0,29.92,ESE,102,10.0,10.0,68,0.00,,,0.00,Wunderground v.1.15,2013-04-26 20:00:00,
2013-04-26 16:10:00,82.4,71.2,29.92,East,93,10.0,10.0,69,0.00,,,0.00,Wunderground v.1.15,2013-04-26 20:10:00,
2013-04-26 16:20:00,81.8,71.1,29.92,East,101,9.0,9.0,70,0.00,,,0.00,Wunderground v.1.15,2013-04-26 20:20:00,
2013-04-26 16:30:00,81.8,71.1,29.92,East,86,9.0,12.0,70,0.00,,,0.00,Wunderground v.1.15,2013-04-26 20:30:00,
2013-04-26 16:40:00,81.4,70.7,29.92,ESE,105,10.0,10.0,70,0.00,,,0.00,Wunderground v.1.15,2013-04-26 20:40:00,
2013-04-26 16:50:00,81.2,70.5,29.92,ENE,70,9.0,9.0,70,0.00,,,0.00,Wunderground v.1.15,2013-04-26 20:50:00,
2013-04-26 17:00:00,80.5,70.6,29.92,East,80,8.0,8.0,72,0.00,,,0.00,Wunderground v.1.15,2013-04-26 21:00:00,
2013-04-26 17:10:00,80.1,69.8,29.92,East,82,9.0,9.0,71,0.00,,,0.00,Wunderground v.1.15,2013-04-26 21:10:00,
2013-04-26 17:20:00,79.8,70.4,29.92,East,91,9.0,9.0,73,0.00,,,0.00,Wunderground v.1.15,2013-04-26 21:20:00,
2013-04-26 17:30:00,79.6,70.6,29.92,East,82,8.0,11.0,74,0.00,,,0.00,Wunderground v.1.15,2013-04-26 21:30:00,
2013-04-26 17:40:00,79.2,70.6,29.92,East,98,9.0,9.0,75,0.00,,,0.00,Wunderground v.1.15,2013-04-26 21:40:00,
2013-04-26 17:50:00,78.6,70.0,29.92,East,89,8.0,9.0,75,0.00,,,0.00,Wunderground v.1.15,2013-04-26 21:50:00,
2013-04-26 18:00:00,78.3,70.1,29.92,ENE,76,9.0,10.0,76,0.00,,,0.00,Wunderground v.1.15,2013-04-26 22:00:00,
2013-04-26 18:10:00,78.1,70.3,29.92,East,98,8.0,12.0,77,0.00,,,0.00,Wunderground v.1.15,2013-04-26 22:10:00,
2013-04-26 18:20:00,77.7,70.3,29.92,East,90,9.0,9.0,78,0.00,,,0.00,Wunderground v.1.15,2013-04-26 22:20:00,
2013-04-26 18:30:00,77.7,70.3,29.93,ENE,62,8.0,14.0,78,0.00,,,0.00,Wunderground v.1.15,2013-04-26 22:30:00,
2013-04-26 18:40:00,77.6,70.2,29.93,ENE,71,8.0,8.0,78,0.00,,,0.00,Wunderground v.1.15,2013-04-26 22:40:00,
2013-04-26 18:50:00,77.4,70.0,29.93,ENE,74,7.0,7.0,78,0.00,,,0.00,Wunderground v.1.15,2013-04-26 22:50:00,
2013-04-26 19:00:00,77.4,70.4,29.93,ENE,69,6.0,9.0,79,0.00,,,0.00,Wunderground v.1.15,2013-04-26 23:00:00,
2013-04-26 19:10:00,77.2,70.2,29.93,ENE,74,7.0,7.0,79,0.00,,,0.00,Wunderground v.1.15,2013-04-26 23:10:00,
2013-04-26 19:20:00,77.0,70.0,29.93,NE,49,5.0,6.0,79,0.00,,,0.00,Wunderground v.1.15,2013-04-26 23:20:00,
2013-04-26 19:30:00,76.8,70.2,29.94,NE,55,5.0,5.0,80,0.00,,,0.00,Wunderground v.1.15,2013-04-26 23:30:00,
2013-04-26 19:40:00,76.7,70.1,29.94,ENE,61,5.0,6.0,80,0.00,,,0.00,Wunderground v.1.15,2013-04-26 23:40:00,
2013-04-26 19:50:00,76.8,70.2,29.94,ENE,67,7.0,7.0,80,0.00,,,0.00,Wunderground v.1.15,2013-04-26 23:50:00,